sensor_id;sensor_type;location;lat;lon;timestamp;P1;durP1;ratioP1;P2;durP2;ratioP2
13321;SDS011;6730;46.248;6.930;2023-06-22T00:00:52;9.25;;;3.80;;
13321;SDS011;6730;46.248;6.930;2023-06-22T00:03:18;5.70;;;3.45;;
13321;SDS011;6730;46.248;6.930;2023-06-22T00:05:49;10.35;;;4.18;;
13321;SDS011;6730;46.248;6.930;2023-06-22T00:08:15;11.77;;;4.70;;
13321;SDS011;6730;46.248;6.930;2023-06-22T00:10:42;8.63;;;3.90;;
13321;SDS011;6730;46.248;6.930;2023-06-22T00:13:08;8.00;;;3.85;;
13321;SDS011;6730;46.248;6.930;2023-06-22T00:15:35;8.85;;;3.67;;
13321;SDS011;6730;46.248;6.930;2023-06-22T00:18:02;9.43;;;3.80;;
13321;SDS011;6730;46.248;6.930;2023-06-22T00:20:28;6.55;;;3.75;;
13321;SDS011;6730;46.248;6.930;2023-06-22T00:22:54;13.93;;;3.80;;
13321;SDS011;6730;46.248;6.930;2023-06-22T00:25:21;9.40;;;4.13;;
13321;SDS011;6730;46.248;6.930;2023-06-22T00:27:47;9.13;;;4.20;;
13321;SDS011;6730;46.248;6.930;2023-06-22T00:30:13;10.00;;;3.53;;
13321;SDS011;6730;46.248;6.930;2023-06-22T00:32:40;15.13;;;5.78;;
13321;SDS011;6730;46.248;6.930;2023-06-22T00:35:06;6.32;;;3.97;;
13321;SDS011;6730;46.248;6.930;2023-06-22T00:37:32;9.60;;;4.00;;
13321;SDS011;6730;46.248;6.930;2023-06-22T00:39:58;9.25;;;4.07;;
13321;SDS011;6730;46.248;6.930;2023-06-22T00:42:24;14.27;;;4.30;;
13321;SDS011;6730;46.248;6.930;2023-06-22T00:44:50;7.88;;;3.88;;
13321;SDS011;6730;46.248;6.930;2023-06-22T00:47:15;10.38;;;4.25;;
13321;SDS011;6730;46.248;6.930;2023-06-22T00:49:43;9.88;;;3.83;;
13321;SDS011;6730;46.248;6.930;2023-06-22T00:52:10;11.75;;;4.22;;
13321;SDS011;6730;46.248;6.930;2023-06-22T00:54:39;7.10;;;4.05;;
13321;SDS011;6730;46.248;6.930;2023-06-22T00:57:13;9.95;;;4.38;;
13321;SDS011;6730;46.248;6.930;2023-06-22T00:59:42;9.75;;;3.72;;
13321;SDS011;6730;46.248;6.930;2023-06-22T01:02:09;11.60;;;4.40;;
13321;SDS011;6730;46.248;6.930;2023-06-22T01:04:35;9.52;;;4.25;;
13321;SDS011;6730;46.248;6.930;2023-06-22T01:07:05;10.52;;;4.55;;
13321;SDS011;6730;46.248;6.930;2023-06-22T01:09:34;9.43;;;3.72;;
13321;SDS011;6730;46.248;6.930;2023-06-22T01:12:04;18.90;;;5.13;;
13321;SDS011;6730;46.248;6.930;2023-06-22T01:14:36;8.93;;;4.00;;
13321;SDS011;6730;46.248;6.930;2023-06-22T01:17:07;9.00;;;4.15;;
13321;SDS011;6730;46.248;6.930;2023-06-22T01:22:06;8.70;;;4.13;;
13321;SDS011;6730;46.248;6.930;2023-06-22T01:24:41;8.60;;;4.13;;
13321;SDS011;6730;46.248;6.930;2023-06-22T01:30:21;10.63;;;4.35;;
13321;SDS011;6730;46.248;6.930;2023-06-22T01:32:51;7.93;;;4.30;;
13321;SDS011;6730;46.248;6.930;2023-06-22T01:35:19;10.23;;;4.10;;
13321;SDS011;6730;46.248;6.930;2023-06-22T01:37:46;6.15;;;4.00;;
13321;SDS011;6730;46.248;6.930;2023-06-22T01:40:12;6.80;;;3.88;;
13321;SDS011;6730;46.248;6.930;2023-06-22T01:42:40;9.38;;;3.92;;
13321;SDS011;6730;46.248;6.930;2023-06-22T01:45:06;8.50;;;4.07;;
13321;SDS011;6730;46.248;6.930;2023-06-22T01:47:33;14.90;;;4.65;;
13321;SDS011;6730;46.248;6.930;2023-06-22T01:49:59;10.07;;;4.20;;
13321;SDS011;6730;46.248;6.930;2023-06-22T01:52:25;6.93;;;3.58;;
13321;SDS011;6730;46.248;6.930;2023-06-22T01:54:51;8.93;;;3.95;;
13321;SDS011;6730;46.248;6.930;2023-06-22T01:57:17;13.68;;;4.20;;
13321;SDS011;6730;46.248;6.930;2023-06-22T02:00:03;8.63;;;3.83;;
13321;SDS011;6730;46.248;6.930;2023-06-22T02:02:32;10.63;;;3.90;;
13321;SDS011;6730;46.248;6.930;2023-06-22T02:05:05;9.82;;;3.70;;
13321;SDS011;6730;46.248;6.930;2023-06-22T02:07:39;10.57;;;4.55;;
13321;SDS011;6730;46.248;6.930;2023-06-22T02:10:10;10.98;;;4.88;;
13321;SDS011;6730;46.248;6.930;2023-06-22T02:12:40;12.50;;;4.18;;
13321;SDS011;6730;46.248;6.930;2023-06-22T02:15:08;9.18;;;4.05;;
13321;SDS011;6730;46.248;6.930;2023-06-22T02:17:37;11.52;;;4.45;;
13321;SDS011;6730;46.248;6.930;2023-06-22T02:20:03;11.02;;;3.83;;
13321;SDS011;6730;46.248;6.930;2023-06-22T02:22:33;9.05;;;3.50;;
13321;SDS011;6730;46.248;6.930;2023-06-22T02:24:59;7.57;;;4.07;;
13321;SDS011;6730;46.248;6.930;2023-06-22T02:27:25;9.43;;;3.85;;
13321;SDS011;6730;46.248;6.930;2023-06-22T02:29:51;9.02;;;3.92;;
13321;SDS011;6730;46.248;6.930;2023-06-22T02:32:16;7.55;;;4.28;;
13321;SDS011;6730;46.248;6.930;2023-06-22T02:34:43;11.82;;;4.32;;
13321;SDS011;6730;46.248;6.930;2023-06-22T02:37:13;12.38;;;4.50;;
13321;SDS011;6730;46.248;6.930;2023-06-22T02:39:42;9.95;;;4.07;;
13321;SDS011;6730;46.248;6.930;2023-06-22T02:42:07;10.57;;;4.38;;
13321;SDS011;6730;46.248;6.930;2023-06-22T02:44:35;12.00;;;4.78;;
13321;SDS011;6730;46.248;6.930;2023-06-22T02:47:01;8.15;;;4.05;;
13321;SDS011;6730;46.248;6.930;2023-06-22T02:49:27;10.65;;;4.03;;
13321;SDS011;6730;46.248;6.930;2023-06-22T02:51:53;9.02;;;4.05;;
13321;SDS011;6730;46.248;6.930;2023-06-22T02:54:20;11.07;;;4.13;;
13321;SDS011;6730;46.248;6.930;2023-06-22T02:56:45;11.63;;;4.68;;
13321;SDS011;6730;46.248;6.930;2023-06-22T02:59:13;7.60;;;3.80;;
13321;SDS011;6730;46.248;6.930;2023-06-22T03:01:39;9.80;;;3.70;;
13321;SDS011;6730;46.248;6.930;2023-06-22T03:04:08;8.25;;;4.30;;
13321;SDS011;6730;46.248;6.930;2023-06-22T03:06:35;9.60;;;4.35;;
13321;SDS011;6730;46.248;6.930;2023-06-22T03:09:02;7.70;;;3.90;;
13321;SDS011;6730;46.248;6.930;2023-06-22T03:11:30;11.25;;;4.20;;
13321;SDS011;6730;46.248;6.930;2023-06-22T03:13:56;16.27;;;4.15;;
13321;SDS011;6730;46.248;6.930;2023-06-22T03:16:22;10.18;;;4.07;;
13321;SDS011;6730;46.248;6.930;2023-06-22T03:18:48;8.25;;;4.53;;
13321;SDS011;6730;46.248;6.930;2023-06-22T03:21:14;12.02;;;4.65;;
13321;SDS011;6730;46.248;6.930;2023-06-22T03:23:40;12.60;;;5.28;;
13321;SDS011;6730;46.248;6.930;2023-06-22T03:26:06;18.95;;;7.90;;
13321;SDS011;6730;46.248;6.930;2023-06-22T03:28:33;17.88;;;6.53;;
13321;SDS011;6730;46.248;6.930;2023-06-22T03:30:59;15.00;;;6.53;;
13321;SDS011;6730;46.248;6.930;2023-06-22T03:33:25;11.30;;;6.35;;
13321;SDS011;6730;46.248;6.930;2023-06-22T03:35:50;17.83;;;8.38;;
13321;SDS011;6730;46.248;6.930;2023-06-22T03:38:16;15.77;;;7.57;;
13321;SDS011;6730;46.248;6.930;2023-06-22T03:40:42;18.92;;;8.65;;
13321;SDS011;6730;46.248;6.930;2023-06-22T03:43:08;18.48;;;8.48;;
13321;SDS011;6730;46.248;6.930;2023-06-22T03:45:34;17.10;;;7.15;;
13321;SDS011;6730;46.248;6.930;2023-06-22T03:48:00;18.17;;;6.25;;
13321;SDS011;6730;46.248;6.930;2023-06-22T03:50:26;9.45;;;5.47;;
13321;SDS011;6730;46.248;6.930;2023-06-22T03:52:52;8.93;;;4.30;;
13321;SDS011;6730;46.248;6.930;2023-06-22T03:55:19;15.93;;;4.93;;
13321;SDS011;6730;46.248;6.930;2023-06-22T03:57:47;13.32;;;5.20;;
13321;SDS011;6730;46.248;6.930;2023-06-22T04:00:13;9.68;;;4.03;;
13321;SDS011;6730;46.248;6.930;2023-06-22T04:02:40;9.35;;;4.20;;
13321;SDS011;6730;46.248;6.930;2023-06-22T04:05:08;12.48;;;4.72;;
13321;SDS011;6730;46.248;6.930;2023-06-22T04:07:34;7.65;;;4.03;;
13321;SDS011;6730;46.248;6.930;2023-06-22T04:10:02;17.05;;;5.20;;
13321;SDS011;6730;46.248;6.930;2023-06-22T04:12:29;15.10;;;4.38;;
13321;SDS011;6730;46.248;6.930;2023-06-22T04:14:54;10.65;;;4.35;;
13321;SDS011;6730;46.248;6.930;2023-06-22T04:17:20;9.48;;;4.28;;
13321;SDS011;6730;46.248;6.930;2023-06-22T04:19:46;14.13;;;4.72;;
13321;SDS011;6730;46.248;6.930;2023-06-22T04:22:12;9.75;;;4.20;;
13321;SDS011;6730;46.248;6.930;2023-06-22T04:24:37;16.63;;;5.55;;
13321;SDS011;6730;46.248;6.930;2023-06-22T04:27:03;13.23;;;4.80;;
13321;SDS011;6730;46.248;6.930;2023-06-22T04:29:29;13.05;;;4.82;;
13321;SDS011;6730;46.248;6.930;2023-06-22T04:31:56;12.68;;;4.78;;
13321;SDS011;6730;46.248;6.930;2023-06-22T04:34:23;10.40;;;4.47;;
13321;SDS011;6730;46.248;6.930;2023-06-22T04:36:51;7.95;;;4.38;;
13321;SDS011;6730;46.248;6.930;2023-06-22T04:39:17;11.50;;;5.00;;
13321;SDS011;6730;46.248;6.930;2023-06-22T04:41:44;10.38;;;4.90;;
13321;SDS011;6730;46.248;6.930;2023-06-22T04:44:13;14.27;;;4.85;;
13321;SDS011;6730;46.248;6.930;2023-06-22T04:46:49;7.30;;;4.53;;
13321;SDS011;6730;46.248;6.930;2023-06-22T04:49:24;15.70;;;5.20;;
13321;SDS011;6730;46.248;6.930;2023-06-22T04:51:57;11.00;;;5.68;;
13321;SDS011;6730;46.248;6.930;2023-06-22T04:54:27;11.98;;;4.65;;
13321;SDS011;6730;46.248;6.930;2023-06-22T04:56:53;13.40;;;4.85;;
13321;SDS011;6730;46.248;6.930;2023-06-22T04:59:22;11.35;;;5.55;;
13321;SDS011;6730;46.248;6.930;2023-06-22T05:01:52;10.38;;;5.05;;
13321;SDS011;6730;46.248;6.930;2023-06-22T05:04:26;13.05;;;5.30;;
13321;SDS011;6730;46.248;6.930;2023-06-22T05:06:53;14.38;;;4.72;;
13321;SDS011;6730;46.248;6.930;2023-06-22T05:09:19;10.02;;;4.28;;
13321;SDS011;6730;46.248;6.930;2023-06-22T05:11:46;10.05;;;5.18;;
13321;SDS011;6730;46.248;6.930;2023-06-22T05:14:12;10.07;;;5.28;;
13321;SDS011;6730;46.248;6.930;2023-06-22T05:16:38;9.40;;;4.68;;
13321;SDS011;6730;46.248;6.930;2023-06-22T05:19:06;14.38;;;6.07;;
13321;SDS011;6730;46.248;6.930;2023-06-22T05:21:32;12.70;;;6.05;;
13321;SDS011;6730;46.248;6.930;2023-06-22T05:23:57;9.55;;;5.28;;
13321;SDS011;6730;46.248;6.930;2023-06-22T05:26:25;9.98;;;4.93;;
13321;SDS011;6730;46.248;6.930;2023-06-22T05:28:55;14.63;;;5.32;;
13321;SDS011;6730;46.248;6.930;2023-06-22T05:31:22;11.68;;;5.22;;
13321;SDS011;6730;46.248;6.930;2023-06-22T05:33:51;14.05;;;6.10;;
13321;SDS011;6730;46.248;6.930;2023-06-22T05:36:18;12.35;;;5.75;;
13321;SDS011;6730;46.248;6.930;2023-06-22T05:38:50;10.63;;;6.05;;
13321;SDS011;6730;46.248;6.930;2023-06-22T05:41:21;12.85;;;6.75;;
13321;SDS011;6730;46.248;6.930;2023-06-22T05:43:47;11.90;;;5.43;;
13321;SDS011;6730;46.248;6.930;2023-06-22T05:46:13;14.15;;;6.00;;
13321;SDS011;6730;46.248;6.930;2023-06-22T05:48:39;10.95;;;6.03;;
13321;SDS011;6730;46.248;6.930;2023-06-22T05:51:04;9.07;;;5.25;;
13321;SDS011;6730;46.248;6.930;2023-06-22T05:53:30;9.65;;;5.57;;
13321;SDS011;6730;46.248;6.930;2023-06-22T05:55:56;15.52;;;5.88;;
13321;SDS011;6730;46.248;6.930;2023-06-22T05:58:21;13.90;;;5.78;;
13321;SDS011;6730;46.248;6.930;2023-06-22T06:00:47;14.75;;;6.20;;
13321;SDS011;6730;46.248;6.930;2023-06-22T06:03:13;12.85;;;6.32;;
13321;SDS011;6730;46.248;6.930;2023-06-22T06:05:42;13.77;;;6.00;;
13321;SDS011;6730;46.248;6.930;2023-06-22T06:08:08;16.05;;;5.57;;
13321;SDS011;6730;46.248;6.930;2023-06-22T06:10:36;11.73;;;7.03;;
13321;SDS011;6730;46.248;6.930;2023-06-22T06:13:02;12.35;;;6.88;;
13321;SDS011;6730;46.248;6.930;2023-06-22T06:15:29;13.65;;;7.68;;
13321;SDS011;6730;46.248;6.930;2023-06-22T06:17:55;10.20;;;7.07;;
13321;SDS011;6730;46.248;6.930;2023-06-22T06:20:22;11.82;;;6.22;;
13321;SDS011;6730;46.248;6.930;2023-06-22T06:22:49;17.50;;;7.30;;
13321;SDS011;6730;46.248;6.930;2023-06-22T06:25:15;12.07;;;5.80;;
13321;SDS011;6730;46.248;6.930;2023-06-22T06:27:48;16.92;;;7.50;;
13321;SDS011;6730;46.248;6.930;2023-06-22T06:30:15;8.63;;;6.20;;
13321;SDS011;6730;46.248;6.930;2023-06-22T06:32:42;9.82;;;6.25;;
13321;SDS011;6730;46.248;6.930;2023-06-22T06:35:10;11.20;;;6.55;;
13321;SDS011;6730;46.248;6.930;2023-06-22T06:37:37;10.20;;;6.25;;
13321;SDS011;6730;46.248;6.930;2023-06-22T06:40:04;10.68;;;5.82;;
13321;SDS011;6730;46.248;6.930;2023-06-22T06:42:35;11.50;;;6.15;;
13321;SDS011;6730;46.248;6.930;2023-06-22T06:45:02;11.52;;;6.07;;
13321;SDS011;6730;46.248;6.930;2023-06-22T06:47:29;16.85;;;5.53;;
13321;SDS011;6730;46.248;6.930;2023-06-22T06:49:55;9.90;;;5.20;;
13321;SDS011;6730;46.248;6.930;2023-06-22T06:52:21;11.73;;;6.28;;
13321;SDS011;6730;46.248;6.930;2023-06-22T06:54:46;11.00;;;5.50;;
13321;SDS011;6730;46.248;6.930;2023-06-22T06:57:12;12.27;;;5.07;;
13321;SDS011;6730;46.248;6.930;2023-06-22T06:59:38;11.88;;;5.80;;
13321;SDS011;6730;46.248;6.930;2023-06-22T07:02:04;11.65;;;5.38;;
13321;SDS011;6730;46.248;6.930;2023-06-22T07:04:30;9.70;;;5.35;;
13321;SDS011;6730;46.248;6.930;2023-06-22T07:06:55;9.68;;;4.90;;
13321;SDS011;6730;46.248;6.930;2023-06-22T07:09:21;13.10;;;6.10;;
13321;SDS011;6730;46.248;6.930;2023-06-22T07:11:47;13.02;;;5.72;;
13321;SDS011;6730;46.248;6.930;2023-06-22T07:14:12;9.63;;;5.20;;
13321;SDS011;6730;46.248;6.930;2023-06-22T07:16:38;10.98;;;5.15;;
13321;SDS011;6730;46.248;6.930;2023-06-22T07:19:04;8.70;;;5.70;;
13321;SDS011;6730;46.248;6.930;2023-06-22T07:21:29;13.73;;;7.30;;
13321;SDS011;6730;46.248;6.930;2023-06-22T07:23:55;10.70;;;5.45;;
13321;SDS011;6730;46.248;6.930;2023-06-22T07:26:21;10.60;;;5.00;;
13321;SDS011;6730;46.248;6.930;2023-06-22T07:28:47;13.00;;;5.43;;
13321;SDS011;6730;46.248;6.930;2023-06-22T07:31:13;11.02;;;5.55;;
13321;SDS011;6730;46.248;6.930;2023-06-22T07:33:38;11.50;;;5.05;;
13321;SDS011;6730;46.248;6.930;2023-06-22T07:36:04;10.55;;;5.10;;
13321;SDS011;6730;46.248;6.930;2023-06-22T07:38:32;12.57;;;4.55;;
13321;SDS011;6730;46.248;6.930;2023-06-22T07:40:59;13.00;;;4.72;;
13321;SDS011;6730;46.248;6.930;2023-06-22T07:43:25;12.23;;;5.10;;
13321;SDS011;6730;46.248;6.930;2023-06-22T07:45:51;12.07;;;4.78;;
13321;SDS011;6730;46.248;6.930;2023-06-22T07:48:19;8.40;;;5.00;;
13321;SDS011;6730;46.248;6.930;2023-06-22T07:50:48;10.98;;;4.57;;
13321;SDS011;6730;46.248;6.930;2023-06-22T07:53:14;12.15;;;5.70;;
13321;SDS011;6730;46.248;6.930;2023-06-22T07:55:40;15.27;;;6.32;;
13321;SDS011;6730;46.248;6.930;2023-06-22T07:58:06;12.27;;;5.70;;
13321;SDS011;6730;46.248;6.930;2023-06-22T08:00:31;11.88;;;6.05;;
13321;SDS011;6730;46.248;6.930;2023-06-22T08:02:58;10.02;;;5.20;;
13321;SDS011;6730;46.248;6.930;2023-06-22T08:05:24;13.70;;;5.75;;
13321;SDS011;6730;46.248;6.930;2023-06-22T08:07:50;11.88;;;5.75;;
13321;SDS011;6730;46.248;6.930;2023-06-22T08:10:16;10.30;;;4.97;;
13321;SDS011;6730;46.248;6.930;2023-06-22T08:12:42;8.70;;;5.03;;
13321;SDS011;6730;46.248;6.930;2023-06-22T08:15:09;7.88;;;4.00;;
13321;SDS011;6730;46.248;6.930;2023-06-22T08:17:38;11.13;;;4.80;;
13321;SDS011;6730;46.248;6.930;2023-06-22T08:20:05;12.10;;;4.28;;
13321;SDS011;6730;46.248;6.930;2023-06-22T08:22:37;10.25;;;4.50;;
13321;SDS011;6730;46.248;6.930;2023-06-22T08:25:03;7.72;;;3.78;;
13321;SDS011;6730;46.248;6.930;2023-06-22T08:27:30;11.73;;;4.32;;
13321;SDS011;6730;46.248;6.930;2023-06-22T08:29:59;11.32;;;4.05;;
13321;SDS011;6730;46.248;6.930;2023-06-22T08:32:26;10.35;;;4.38;;
13321;SDS011;6730;46.248;6.930;2023-06-22T08:34:53;8.10;;;3.47;;
13321;SDS011;6730;46.248;6.930;2023-06-22T08:37:19;13.98;;;4.00;;
13321;SDS011;6730;46.248;6.930;2023-06-22T08:39:45;12.52;;;3.92;;
13321;SDS011;6730;46.248;6.930;2023-06-22T08:42:11;11.07;;;3.80;;
13321;SDS011;6730;46.248;6.930;2023-06-22T08:44:37;17.27;;;5.10;;
13321;SDS011;6730;46.248;6.930;2023-06-22T08:47:03;11.68;;;5.32;;
13321;SDS011;6730;46.248;6.930;2023-06-22T08:49:29;9.13;;;3.38;;
13321;SDS011;6730;46.248;6.930;2023-06-22T08:51:54;6.93;;;3.72;;
13321;SDS011;6730;46.248;6.930;2023-06-22T08:54:21;9.98;;;3.35;;
13321;SDS011;6730;46.248;6.930;2023-06-22T08:56:47;13.10;;;5.07;;
13321;SDS011;6730;46.248;6.930;2023-06-22T08:59:13;10.82;;;3.13;;
13321;SDS011;6730;46.248;6.930;2023-06-22T09:01:39;13.75;;;3.92;;
13321;SDS011;6730;46.248;6.930;2023-06-22T09:04:04;9.95;;;3.90;;
13321;SDS011;6730;46.248;6.930;2023-06-22T09:06:32;10.98;;;3.50;;
13321;SDS011;6730;46.248;6.930;2023-06-22T09:08:57;10.70;;;3.17;;
13321;SDS011;6730;46.248;6.930;2023-06-22T09:11:26;8.00;;;2.67;;
13321;SDS011;6730;46.248;6.930;2023-06-22T09:13:51;11.68;;;2.85;;
13321;SDS011;6730;46.248;6.930;2023-06-22T09:16:18;8.27;;;2.80;;
13321;SDS011;6730;46.248;6.930;2023-06-22T09:18:47;10.82;;;3.10;;
13321;SDS011;6730;46.248;6.930;2023-06-22T09:21:13;5.80;;;2.80;;
13321;SDS011;6730;46.248;6.930;2023-06-22T09:23:39;7.18;;;2.63;;
13321;SDS011;6730;46.248;6.930;2023-06-22T09:26:05;9.25;;;2.85;;
13321;SDS011;6730;46.248;6.930;2023-06-22T09:28:31;6.03;;;3.13;;
13321;SDS011;6730;46.248;6.930;2023-06-22T09:30:58;9.48;;;2.58;;
13321;SDS011;6730;46.248;6.930;2023-06-22T09:33:25;10.90;;;3.20;;
13321;SDS011;6730;46.248;6.930;2023-06-22T09:35:51;9.73;;;2.85;;
13321;SDS011;6730;46.248;6.930;2023-06-22T09:38:21;9.20;;;2.85;;
13321;SDS011;6730;46.248;6.930;2023-06-22T09:40:47;7.13;;;2.45;;
13321;SDS011;6730;46.248;6.930;2023-06-22T09:43:12;4.20;;;2.22;;
13321;SDS011;6730;46.248;6.930;2023-06-22T09:45:38;6.97;;;2.65;;
13321;SDS011;6730;46.248;6.930;2023-06-22T09:48:04;6.30;;;2.40;;
13321;SDS011;6730;46.248;6.930;2023-06-22T09:50:30;8.05;;;2.70;;
13321;SDS011;6730;46.248;6.930;2023-06-22T09:52:55;7.75;;;2.97;;
13321;SDS011;6730;46.248;6.930;2023-06-22T09:55:21;6.28;;;2.22;;
13321;SDS011;6730;46.248;6.930;2023-06-22T09:57:47;7.72;;;2.92;;
13321;SDS011;6730;46.248;6.930;2023-06-22T10:00:13;5.95;;;2.47;;
13321;SDS011;6730;46.248;6.930;2023-06-22T10:02:41;10.02;;;3.40;;
13321;SDS011;6730;46.248;6.930;2023-06-22T10:05:08;8.13;;;2.78;;
13321;SDS011;6730;46.248;6.930;2023-06-22T10:07:33;5.38;;;2.25;;
13321;SDS011;6730;46.248;6.930;2023-06-22T10:09:59;8.65;;;2.85;;
13321;SDS011;6730;46.248;6.930;2023-06-22T10:12:28;6.50;;;2.65;;
13321;SDS011;6730;46.248;6.930;2023-06-22T10:14:53;5.80;;;2.58;;
13321;SDS011;6730;46.248;6.930;2023-06-22T10:17:19;7.82;;;2.60;;
13321;SDS011;6730;46.248;6.930;2023-06-22T10:19:45;6.22;;;2.75;;
13321;SDS011;6730;46.248;6.930;2023-06-22T10:22:10;6.93;;;2.42;;
13321;SDS011;6730;46.248;6.930;2023-06-22T10:24:36;6.10;;;2.45;;
13321;SDS011;6730;46.248;6.930;2023-06-22T10:27:03;8.57;;;2.55;;
13321;SDS011;6730;46.248;6.930;2023-06-22T10:29:29;5.03;;;2.53;;
13321;SDS011;6730;46.248;6.930;2023-06-22T10:31:55;9.35;;;2.60;;
13321;SDS011;6730;46.248;6.930;2023-06-22T10:34:20;7.45;;;3.40;;
13321;SDS011;6730;46.248;6.930;2023-06-22T10:36:46;12.90;;;5.20;;
13321;SDS011;6730;46.248;6.930;2023-06-22T10:39:14;13.60;;;5.63;;
13321;SDS011;6730;46.248;6.930;2023-06-22T10:41:40;9.30;;;5.32;;
13321;SDS011;6730;46.248;6.930;2023-06-22T10:44:06;10.57;;;4.75;;
13321;SDS011;6730;46.248;6.930;2023-06-22T10:46:31;14.32;;;4.60;;
13321;SDS011;6730;46.248;6.930;2023-06-22T10:48:57;7.72;;;4.03;;
13321;SDS011;6730;46.248;6.930;2023-06-22T10:51:24;11.82;;;5.22;;
13321;SDS011;6730;46.248;6.930;2023-06-22T10:53:50;9.85;;;4.50;;
13321;SDS011;6730;46.248;6.930;2023-06-22T10:56:16;11.73;;;5.00;;
13321;SDS011;6730;46.248;6.930;2023-06-22T10:58:44;10.20;;;4.97;;
13321;SDS011;6730;46.248;6.930;2023-06-22T11:01:10;11.10;;;5.80;;
13321;SDS011;6730;46.248;6.930;2023-06-22T11:03:36;11.30;;;5.32;;
13321;SDS011;6730;46.248;6.930;2023-06-22T11:06:02;11.73;;;5.20;;
13321;SDS011;6730;46.248;6.930;2023-06-22T11:08:28;13.73;;;6.05;;
13321;SDS011;6730;46.248;6.930;2023-06-22T11:10:53;10.70;;;5.70;;
13321;SDS011;6730;46.248;6.930;2023-06-22T11:13:19;13.13;;;5.53;;
13321;SDS011;6730;46.248;6.930;2023-06-22T11:15:45;9.15;;;5.43;;
13321;SDS011;6730;46.248;6.930;2023-06-22T11:18:10;11.23;;;5.80;;
13321;SDS011;6730;46.248;6.930;2023-06-22T11:20:36;11.73;;;6.03;;
13321;SDS011;6730;46.248;6.930;2023-06-22T11:23:04;10.88;;;5.47;;
13321;SDS011;6730;46.248;6.930;2023-06-22T11:25:31;15.13;;;5.95;;
13321;SDS011;6730;46.248;6.930;2023-06-22T11:27:57;10.50;;;5.60;;
13321;SDS011;6730;46.248;6.930;2023-06-22T11:30:22;11.30;;;5.78;;
13321;SDS011;6730;46.248;6.930;2023-06-22T11:32:48;14.05;;;6.60;;
13321;SDS011;6730;46.248;6.930;2023-06-22T11:35:14;11.55;;;6.72;;
13321;SDS011;6730;46.248;6.930;2023-06-22T11:37:39;10.13;;;5.63;;
13321;SDS011;6730;46.248;6.930;2023-06-22T11:40:05;12.88;;;5.32;;
13321;SDS011;6730;46.248;6.930;2023-06-22T11:42:34;13.18;;;5.43;;
13321;SDS011;6730;46.248;6.930;2023-06-22T11:44:59;7.75;;;4.78;;
13321;SDS011;6730;46.248;6.930;2023-06-22T11:47:27;10.43;;;5.03;;
13321;SDS011;6730;46.248;6.930;2023-06-22T11:49:52;13.25;;;4.95;;
13321;SDS011;6730;46.248;6.930;2023-06-22T11:52:18;10.48;;;5.15;;
13321;SDS011;6730;46.248;6.930;2023-06-22T11:54:44;11.52;;;5.35;;
13321;SDS011;6730;46.248;6.930;2023-06-22T11:57:10;10.43;;;5.22;;
13321;SDS011;6730;46.248;6.930;2023-06-22T11:59:36;8.02;;;4.88;;
13321;SDS011;6730;46.248;6.930;2023-06-22T12:02:02;11.27;;;4.55;;
13321;SDS011;6730;46.248;6.930;2023-06-22T12:04:29;7.80;;;4.45;;
13321;SDS011;6730;46.248;6.930;2023-06-22T12:06:54;13.23;;;4.72;;
13321;SDS011;6730;46.248;6.930;2023-06-22T12:09:20;13.10;;;5.43;;
13321;SDS011;6730;46.248;6.930;2023-06-22T12:11:46;6.78;;;3.95;;
13321;SDS011;6730;46.248;6.930;2023-06-22T12:14:11;8.68;;;3.88;;
13321;SDS011;6730;46.248;6.930;2023-06-22T12:16:37;8.02;;;3.78;;
13321;SDS011;6730;46.248;6.930;2023-06-22T12:19:03;7.35;;;3.60;;
13321;SDS011;6730;46.248;6.930;2023-06-22T12:21:28;8.27;;;3.42;;
13321;SDS011;6730;46.248;6.930;2023-06-22T12:23:54;12.30;;;4.10;;
13321;SDS011;6730;46.248;6.930;2023-06-22T12:26:20;6.47;;;3.30;;
13321;SDS011;6730;46.248;6.930;2023-06-22T12:28:46;8.38;;;4.13;;
13321;SDS011;6730;46.248;6.930;2023-06-22T12:31:13;7.38;;;3.97;;
13321;SDS011;6730;46.248;6.930;2023-06-22T12:33:39;8.35;;;4.18;;
13321;SDS011;6730;46.248;6.930;2023-06-22T12:36:05;6.43;;;4.15;;
13321;SDS011;6730;46.248;6.930;2023-06-22T12:38:30;10.65;;;4.43;;
13321;SDS011;6730;46.248;6.930;2023-06-22T12:40:56;6.43;;;3.42;;
13321;SDS011;6730;46.248;6.930;2023-06-22T12:43:22;9.77;;;3.63;;
13321;SDS011;6730;46.248;6.930;2023-06-22T12:45:47;5.75;;;3.70;;
13321;SDS011;6730;46.248;6.930;2023-06-22T12:48:13;7.53;;;3.78;;
13321;SDS011;6730;46.248;6.930;2023-06-22T12:50:39;10.32;;;4.10;;
13321;SDS011;6730;46.248;6.930;2023-06-22T12:53:04;9.98;;;3.72;;
13321;SDS011;6730;46.248;6.930;2023-06-22T12:55:31;8.35;;;3.75;;
13321;SDS011;6730;46.248;6.930;2023-06-22T12:57:57;7.28;;;3.70;;
13321;SDS011;6730;46.248;6.930;2023-06-22T13:00:22;7.65;;;3.80;;
13321;SDS011;6730;46.248;6.930;2023-06-22T13:02:48;6.07;;;3.70;;
13321;SDS011;6730;46.248;6.930;2023-06-22T13:05:14;8.80;;;3.38;;
13321;SDS011;6730;46.248;6.930;2023-06-22T13:07:40;7.78;;;3.53;;
13321;SDS011;6730;46.248;6.930;2023-06-22T13:10:07;10.52;;;3.95;;
13321;SDS011;6730;46.248;6.930;2023-06-22T13:12:33;15.50;;;4.30;;
13321;SDS011;6730;46.248;6.930;2023-06-22T13:14:59;6.70;;;3.13;;
13321;SDS011;6730;46.248;6.930;2023-06-22T13:17:25;6.70;;;3.45;;
13321;SDS011;6730;46.248;6.930;2023-06-22T13:19:50;7.18;;;3.92;;
13321;SDS011;6730;46.248;6.930;2023-06-22T13:22:32;10.85;;;3.90;;
13321;SDS011;6730;46.248;6.930;2023-06-22T13:25:05;8.13;;;3.42;;
13321;SDS011;6730;46.248;6.930;2023-06-22T13:27:31;15.45;;;4.25;;
13321;SDS011;6730;46.248;6.930;2023-06-22T13:30:04;9.57;;;4.05;;
13321;SDS011;6730;46.248;6.930;2023-06-22T13:32:29;6.90;;;3.47;;
13321;SDS011;6730;46.248;6.930;2023-06-22T13:34:55;6.95;;;3.08;;
13321;SDS011;6730;46.248;6.930;2023-06-22T13:37:21;6.22;;;3.78;;
13321;SDS011;6730;46.248;6.930;2023-06-22T13:39:46;4.70;;;3.38;;
13321;SDS011;6730;46.248;6.930;2023-06-22T13:42:12;8.90;;;3.45;;
13321;SDS011;6730;46.248;6.930;2023-06-22T13:44:38;7.15;;;3.28;;
13321;SDS011;6730;46.248;6.930;2023-06-22T13:47:03;9.38;;;3.55;;
13321;SDS011;6730;46.248;6.930;2023-06-22T13:49:30;5.50;;;3.30;;
13321;SDS011;6730;46.248;6.930;2023-06-22T13:51:55;7.97;;;3.40;;
13321;SDS011;6730;46.248;6.930;2023-06-22T13:54:21;8.45;;;3.47;;
13321;SDS011;6730;46.248;6.930;2023-06-22T13:56:47;9.10;;;3.45;;
13321;SDS011;6730;46.248;6.930;2023-06-22T13:59:12;5.28;;;3.40;;
13321;SDS011;6730;46.248;6.930;2023-06-22T14:01:38;8.95;;;3.63;;
13321;SDS011;6730;46.248;6.930;2023-06-22T14:04:05;8.27;;;3.95;;
13321;SDS011;6730;46.248;6.930;2023-06-22T14:06:30;7.07;;;3.70;;
13321;SDS011;6730;46.248;6.930;2023-06-22T14:08:56;8.57;;;3.40;;
13321;SDS011;6730;46.248;6.930;2023-06-22T14:11:22;7.22;;;3.53;;
13321;SDS011;6730;46.248;6.930;2023-06-22T14:13:47;10.82;;;4.07;;
13321;SDS011;6730;46.248;6.930;2023-06-22T14:16:13;7.53;;;4.40;;
13321;SDS011;6730;46.248;6.930;2023-06-22T14:18:39;7.95;;;3.47;;
13321;SDS011;6730;46.248;6.930;2023-06-22T14:21:04;7.47;;;3.53;;
13321;SDS011;6730;46.248;6.930;2023-06-22T14:23:30;5.82;;;3.47;;
13321;SDS011;6730;46.248;6.930;2023-06-22T14:25:56;9.27;;;4.15;;
13321;SDS011;6730;46.248;6.930;2023-06-22T14:28:21;14.00;;;4.93;;
13321;SDS011;6730;46.248;6.930;2023-06-22T14:30:47;8.02;;;4.55;;
13321;SDS011;6730;46.248;6.930;2023-06-22T14:33:13;14.82;;;4.38;;
13321;SDS011;6730;46.248;6.930;2023-06-22T14:35:38;6.82;;;4.00;;
13321;SDS011;6730;46.248;6.930;2023-06-22T14:38:04;8.20;;;4.25;;
13321;SDS011;6730;46.248;6.930;2023-06-22T14:40:30;8.02;;;4.25;;
13321;SDS011;6730;46.248;6.930;2023-06-22T14:42:55;8.13;;;3.88;;
13321;SDS011;6730;46.248;6.930;2023-06-22T14:45:22;8.73;;;4.43;;
13321;SDS011;6730;46.248;6.930;2023-06-22T14:47:48;9.05;;;4.32;;
13321;SDS011;6730;46.248;6.930;2023-06-22T14:50:14;11.95;;;3.97;;
13321;SDS011;6730;46.248;6.930;2023-06-22T14:52:49;7.65;;;4.07;;
13321;SDS011;6730;46.248;6.930;2023-06-22T14:55:15;8.82;;;3.83;;
13321;SDS011;6730;46.248;6.930;2023-06-22T14:57:40;7.82;;;4.47;;